sensor_id;sensor_type;location;lat;lon;timestamp;temperature;humidity
40123;DHT22;25832;45.490;4.912;2023-02-28T00:00:05;0.20;97.70
40123;DHT22;25832;45.490;4.912;2023-02-28T00:02:36;0.20;97.80
40123;DHT22;25832;45.490;4.912;2023-02-28T00:05:02;0.20;97.90
40123;DHT22;25832;45.490;4.912;2023-02-28T00:07:32;0.20;97.80
40123;DHT22;25832;45.490;4.912;2023-02-28T00:09:58;0.20;97.80
40123;DHT22;25832;45.490;4.912;2023-02-28T00:12:24;0.20;97.90
40123;DHT22;25832;45.490;4.912;2023-02-28T00:14:50;0.20;97.70
40123;DHT22;25832;45.490;4.912;2023-02-28T00:17:16;0.20;97.60
40123;DHT22;25832;45.490;4.912;2023-02-28T00:19:43;0.20;97.80
40123;DHT22;25832;45.490;4.912;2023-02-28T00:22:09;0.20;97.70
40123;DHT22;25832;45.490;4.912;2023-02-28T00:24:35;0.20;97.80
40123;DHT22;25832;45.490;4.912;2023-02-28T00:27:00;0.20;97.80
40123;DHT22;25832;45.490;4.912;2023-02-28T00:29:26;0.20;97.80
40123;DHT22;25832;45.490;4.912;2023-02-28T00:31:52;0.20;97.90
40123;DHT22;25832;45.490;4.912;2023-02-28T00:34:17;0.10;98.00
40123;DHT22;25832;45.490;4.912;2023-02-28T00:36:43;0.00;98.10
40123;DHT22;25832;45.490;4.912;2023-02-28T00:39:12;0.00;98.30
40123;DHT22;25832;45.490;4.912;2023-02-28T00:41:37;0.00;98.30
40123;DHT22;25832;45.490;4.912;2023-02-28T00:44:03;0.00;98.10
40123;DHT22;25832;45.490;4.912;2023-02-28T00:46:29;0.00;98.30
40123;DHT22;25832;45.490;4.912;2023-02-28T00:48:54;0.00;98.20
40123;DHT22;25832;45.490;4.912;2023-02-28T00:51:20;0.00;98.20
40123;DHT22;25832;45.490;4.912;2023-02-28T00:53:46;0.00;98.40
40123;DHT22;25832;45.490;4.912;2023-02-28T00:56:11;0.00;98.40
40123;DHT22;25832;45.490;4.912;2023-02-28T00:58:37;0.00;98.40
40123;DHT22;25832;45.490;4.912;2023-02-28T01:01:03;0.00;98.50
40123;DHT22;25832;45.490;4.912;2023-02-28T01:03:28;0.00;98.30
40123;DHT22;25832;45.490;4.912;2023-02-28T01:05:54;0.10;98.40
40123;DHT22;25832;45.490;4.912;2023-02-28T01:08:20;0.10;98.40
40123;DHT22;25832;45.490;4.912;2023-02-28T01:10:46;0.10;98.30
40123;DHT22;25832;45.490;4.912;2023-02-28T01:13:12;0.20;98.20
40123;DHT22;25832;45.490;4.912;2023-02-28T01:15:42;0.30;98.10
40123;DHT22;25832;45.490;4.912;2023-02-28T01:18:09;0.20;98.10
40123;DHT22;25832;45.490;4.912;2023-02-28T01:20:37;0.20;98.20
40123;DHT22;25832;45.490;4.912;2023-02-28T01:23:03;0.10;98.60
40123;DHT22;25832;45.490;4.912;2023-02-28T01:25:28;0.10;98.70
40123;DHT22;25832;45.490;4.912;2023-02-28T01:27:54;0.00;99.20
40123;DHT22;25832;45.490;4.912;2023-02-28T01:30:20;0.10;99.10
40123;DHT22;25832;45.490;4.912;2023-02-28T01:32:45;0.10;99.20
40123;DHT22;25832;45.490;4.912;2023-02-28T01:35:11;0.00;99.40
40123;DHT22;25832;45.490;4.912;2023-02-28T01:37:37;0.00;99.50
40123;DHT22;25832;45.490;4.912;2023-02-28T01:40:03;0.00;99.50
40123;DHT22;25832;45.490;4.912;2023-02-28T01:42:29;0.00;99.60
40123;DHT22;25832;45.490;4.912;2023-02-28T01:45:18;0.00;99.20
40123;DHT22;25832;45.490;4.912;2023-02-28T01:47:45;0.10;99.30
40123;DHT22;25832;45.490;4.912;2023-02-28T01:50:16;0.00;99.60
40123;DHT22;25832;45.490;4.912;2023-02-28T01:52:43;0.00;99.90
40123;DHT22;25832;45.490;4.912;2023-02-28T01:55:11;0.10;99.90
40123;DHT22;25832;45.490;4.912;2023-02-28T01:57:48;0.00;99.80
40123;DHT22;25832;45.490;4.912;2023-02-28T02:00:16;0.00;99.90
40123;DHT22;25832;45.490;4.912;2023-02-28T02:02:44;-0.10;99.90
40123;DHT22;25832;45.490;4.912;2023-02-28T02:05:22;-0.10;99.90
40123;DHT22;25832;45.490;4.912;2023-02-28T02:07:55;0.00;99.90
40123;DHT22;25832;45.490;4.912;2023-02-28T02:10:32;0.00;99.90
40123;DHT22;25832;45.490;4.912;2023-02-28T02:18:53;-0.10;99.90
40123;DHT22;25832;45.490;4.912;2023-02-28T02:35:12;0.10;99.70
40123;DHT22;25832;45.490;4.912;2023-02-28T02:43:07;0.30;99.30
40123;DHT22;25832;45.490;4.912;2023-02-28T02:45:52;0.30;99.40
40123;DHT22;25832;45.490;4.912;2023-02-28T02:48:25;0.40;98.80
40123;DHT22;25832;45.490;4.912;2023-02-28T02:50:58;0.40;98.80
40123;DHT22;25832;45.490;4.912;2023-02-28T02:53:34;0.40;98.50
40123;DHT22;25832;45.490;4.912;2023-02-28T02:56:02;0.40;98.20
40123;DHT22;25832;45.490;4.912;2023-02-28T02:58:34;0.40;98.50
40123;DHT22;25832;45.490;4.912;2023-02-28T03:01:02;0.30;98.40
40123;DHT22;25832;45.490;4.912;2023-02-28T03:03:30;0.30;98.20
40123;DHT22;25832;45.490;4.912;2023-02-28T03:06:00;0.30;98.20
40123;DHT22;25832;45.490;4.912;2023-02-28T03:08:28;0.30;98.50
40123;DHT22;25832;45.490;4.912;2023-02-28T03:10:59;0.30;98.60
40123;DHT22;25832;45.490;4.912;2023-02-28T03:16:35;0.30;98.60
40123;DHT22;25832;45.490;4.912;2023-02-28T03:21:43;0.30;98.20
40123;DHT22;25832;45.490;4.912;2023-02-28T03:24:34;0.40;98.00
40123;DHT22;25832;45.490;4.912;2023-02-28T03:27:15;0.30;98.10
40123;DHT22;25832;45.490;4.912;2023-02-28T03:29:47;0.30;97.90
40123;DHT22;25832;45.490;4.912;2023-02-28T03:32:24;0.30;97.80
40123;DHT22;25832;45.490;4.912;2023-02-28T03:35:01;0.30;97.90
40123;DHT22;25832;45.490;4.912;2023-02-28T03:37:33;0.30;97.80
40123;DHT22;25832;45.490;4.912;2023-02-28T03:40:13;0.30;97.80
40123;DHT22;25832;45.490;4.912;2023-02-28T03:42:42;0.30;97.90
40123;DHT22;25832;45.490;4.912;2023-02-28T03:45:21;0.20;97.90
40123;DHT22;25832;45.490;4.912;2023-02-28T03:50:45;0.20;97.90
40123;DHT22;25832;45.490;4.912;2023-02-28T03:53:16;0.10;97.70
40123;DHT22;25832;45.490;4.912;2023-02-28T03:55:49;0.10;98.10
40123;DHT22;25832;45.490;4.912;2023-02-28T03:58:32;0.10;98.10
40123;DHT22;25832;45.490;4.912;2023-02-28T04:01:26;0.10;98.10
40123;DHT22;25832;45.490;4.912;2023-02-28T04:03:53;0.00;98.00
40123;DHT22;25832;45.490;4.912;2023-02-28T04:06:21;0.00;98.10
40123;DHT22;25832;45.490;4.912;2023-02-28T04:08:47;-0.10;98.40
40123;DHT22;25832;45.490;4.912;2023-02-28T04:11:43;-0.10;98.30
40123;DHT22;25832;45.490;4.912;2023-02-28T04:14:09;-0.10;98.70
40123;DHT22;25832;45.490;4.912;2023-02-28T04:16:39;-0.10;98.50
40123;DHT22;25832;45.490;4.912;2023-02-28T04:19:06;-0.10;98.50
40123;DHT22;25832;45.490;4.912;2023-02-28T04:21:38;-0.10;98.40
40123;DHT22;25832;45.490;4.912;2023-02-28T04:24:08;-0.10;98.40
40123;DHT22;25832;45.490;4.912;2023-02-28T04:26:36;-0.10;98.30
40123;DHT22;25832;45.490;4.912;2023-02-28T04:29:04;-0.10;98.50
40123;DHT22;25832;45.490;4.912;2023-02-28T04:31:30;-0.20;98.60
40123;DHT22;25832;45.490;4.912;2023-02-28T04:33:56;-0.20;98.90
40123;DHT22;25832;45.490;4.912;2023-02-28T04:36:22;-0.30;99.10
40123;DHT22;25832;45.490;4.912;2023-02-28T04:38:49;-0.40;99.10
40123;DHT22;25832;45.490;4.912;2023-02-28T04:41:15;-0.30;99.30
40123;DHT22;25832;45.490;4.912;2023-02-28T04:43:41;-0.30;99.40
40123;DHT22;25832;45.490;4.912;2023-02-28T04:46:07;-0.40;99.40
40123;DHT22;25832;45.490;4.912;2023-02-28T04:48:36;-0.40;99.40
40123;DHT22;25832;45.490;4.912;2023-02-28T04:53:31;-0.50;99.60
40123;DHT22;25832;45.490;4.912;2023-02-28T04:55:57;-0.40;99.60
40123;DHT22;25832;45.490;4.912;2023-02-28T04:58:23;-0.40;99.60
40123;DHT22;25832;45.490;4.912;2023-02-28T05:00:53;-0.40;99.60
40123;DHT22;25832;45.490;4.912;2023-02-28T05:03:20;-0.50;99.70
40123;DHT22;25832;45.490;4.912;2023-02-28T05:05:46;-0.50;99.50
40123;DHT22;25832;45.490;4.912;2023-02-28T05:08:12;-0.40;99.50
40123;DHT22;25832;45.490;4.912;2023-02-28T05:10:38;-0.40;99.50
40123;DHT22;25832;45.490;4.912;2023-02-28T05:13:03;-0.40;99.50
40123;DHT22;25832;45.490;4.912;2023-02-28T05:15:29;-0.50;99.70
40123;DHT22;25832;45.490;4.912;2023-02-28T05:17:55;-0.40;99.60
40123;DHT22;25832;45.490;4.912;2023-02-28T05:20:21;-0.40;99.70
40123;DHT22;25832;45.490;4.912;2023-02-28T05:22:47;-0.40;99.60
40123;DHT22;25832;45.490;4.912;2023-02-28T05:25:16;-0.40;99.70
40123;DHT22;25832;45.490;4.912;2023-02-28T05:27:43;-0.40;99.60
40123;DHT22;25832;45.490;4.912;2023-02-28T05:30:10;-0.50;99.60
40123;DHT22;25832;45.490;4.912;2023-02-28T05:32:39;-0.50;99.70
40123;DHT22;25832;45.490;4.912;2023-02-28T05:35:09;-0.50;99.70
40123;DHT22;25832;45.490;4.912;2023-02-28T05:37:36;-0.50;99.70
40123;DHT22;25832;45.490;4.912;2023-02-28T05:40:03;-0.40;99.50
40123;DHT22;25832;45.490;4.912;2023-02-28T05:42:31;-0.40;99.30
40123;DHT22;25832;45.490;4.912;2023-02-28T05:44:57;-0.40;99.20
40123;DHT22;25832;45.490;4.912;2023-02-28T05:47:23;-0.40;99.20
40123;DHT22;25832;45.490;4.912;2023-02-28T05:49:48;-0.50;99.40
40123;DHT22;25832;45.490;4.912;2023-02-28T05:52:14;-0.40;99.50
40123;DHT22;25832;45.490;4.912;2023-02-28T05:54:40;-0.40;99.40
40123;DHT22;25832;45.490;4.912;2023-02-28T05:57:06;-0.50;99.30
40123;DHT22;25832;45.490;4.912;2023-02-28T05:59:32;-0.50;99.50
40123;DHT22;25832;45.490;4.912;2023-02-28T06:01:58;-0.50;99.60
40123;DHT22;25832;45.490;4.912;2023-02-28T06:04:24;-0.50;99.50
40123;DHT22;25832;45.490;4.912;2023-02-28T06:06:50;-0.50;99.40
40123;DHT22;25832;45.490;4.912;2023-02-28T06:09:16;-0.50;99.40
40123;DHT22;25832;45.490;4.912;2023-02-28T06:11:42;-0.50;99.40
40123;DHT22;25832;45.490;4.912;2023-02-28T06:14:18;-0.60;99.30
40123;DHT22;25832;45.490;4.912;2023-02-28T06:16:44;-0.60;99.50
40123;DHT22;25832;45.490;4.912;2023-02-28T06:19:10;-0.60;99.50
40123;DHT22;25832;45.490;4.912;2023-02-28T06:21:36;-0.60;99.50
40123;DHT22;25832;45.490;4.912;2023-02-28T06:24:03;-0.60;99.40
40123;DHT22;25832;45.490;4.912;2023-02-28T06:26:29;-0.60;99.40
40123;DHT22;25832;45.490;4.912;2023-02-28T06:28:55;-0.60;99.50
40123;DHT22;25832;45.490;4.912;2023-02-28T06:31:22;-0.60;99.20
40123;DHT22;25832;45.490;4.912;2023-02-28T06:33:48;-0.60;99.30
40123;DHT22;25832;45.490;4.912;2023-02-28T06:36:15;-0.60;99.50
40123;DHT22;25832;45.490;4.912;2023-02-28T06:38:41;-0.60;99.50
40123;DHT22;25832;45.490;4.912;2023-02-28T06:41:08;-0.60;99.30
40123;DHT22;25832;45.490;4.912;2023-02-28T06:43:38;-0.60;99.40
40123;DHT22;25832;45.490;4.912;2023-02-28T06:46:06;-0.60;99.30
40123;DHT22;25832;45.490;4.912;2023-02-28T06:48:33;-0.60;99.50
40123;DHT22;25832;45.490;4.912;2023-02-28T06:51:08;-0.60;99.50
40123;DHT22;25832;45.490;4.912;2023-02-28T06:53:35;-0.60;99.30
40123;DHT22;25832;45.490;4.912;2023-02-28T06:56:05;-0.50;99.40
40123;DHT22;25832;45.490;4.912;2023-02-28T06:58:31;-0.50;99.30
40123;DHT22;25832;45.490;4.912;2023-02-28T07:00:57;-0.50;99.30
40123;DHT22;25832;45.490;4.912;2023-02-28T07:03:23;-0.50;99.30
40123;DHT22;25832;45.490;4.912;2023-02-28T07:05:49;-0.50;99.50
40123;DHT22;25832;45.490;4.912;2023-02-28T07:08:15;-0.50;99.20
40123;DHT22;25832;45.490;4.912;2023-02-28T07:10:41;-0.50;99.30
40123;DHT22;25832;45.490;4.912;2023-02-28T07:13:07;-0.50;99.30
40123;DHT22;25832;45.490;4.912;2023-02-28T07:15:34;-0.40;99.40
40123;DHT22;25832;45.490;4.912;2023-02-28T07:18:00;-0.40;99.60
40123;DHT22;25832;45.490;4.912;2023-02-28T07:20:26;-0.40;99.50
40123;DHT22;25832;45.490;4.912;2023-02-28T07:22:52;-0.40;99.70
40123;DHT22;25832;45.490;4.912;2023-02-28T07:25:27;-0.40;99.40
40123;DHT22;25832;45.490;4.912;2023-02-28T07:27:54;-0.40;99.90
40123;DHT22;25832;45.490;4.912;2023-02-28T07:30:20;-0.40;99.90
40123;DHT22;25832;45.490;4.912;2023-02-28T07:32:45;-0.40;99.90
40123;DHT22;25832;45.490;4.912;2023-02-28T07:35:12;-0.40;99.90
40123;DHT22;25832;45.490;4.912;2023-02-28T07:37:37;-0.40;99.90
40123;DHT22;25832;45.490;4.912;2023-02-28T07:40:04;-0.30;99.80
40123;DHT22;25832;45.490;4.912;2023-02-28T07:42:35;-0.30;99.90
40123;DHT22;25832;45.490;4.912;2023-02-28T07:45:01;-0.20;99.40
40123;DHT22;25832;45.490;4.912;2023-02-28T07:47:29;-0.20;99.40
40123;DHT22;25832;45.490;4.912;2023-02-28T07:49:55;-0.10;99.70
40123;DHT22;25832;45.490;4.912;2023-02-28T07:52:21;0.00;99.40
40123;DHT22;25832;45.490;4.912;2023-02-28T07:54:49;0.00;99.50
40123;DHT22;25832;45.490;4.912;2023-02-28T07:57:15;0.10;99.30
40123;DHT22;25832;45.490;4.912;2023-02-28T07:59:41;0.20;99.10
40123;DHT22;25832;45.490;4.912;2023-02-28T08:02:09;0.30;98.40
40123;DHT22;25832;45.490;4.912;2023-02-28T08:04:36;0.50;98.10
40123;DHT22;25832;45.490;4.912;2023-02-28T08:07:01;0.60;98.70
40123;DHT22;25832;45.490;4.912;2023-02-28T08:09:27;0.70;99.10
40123;DHT22;25832;45.490;4.912;2023-02-28T08:11:53;0.80;97.90
40123;DHT22;25832;45.490;4.912;2023-02-28T08:14:18;0.90;98.20
40123;DHT22;25832;45.490;4.912;2023-02-28T08:16:44;0.90;97.60
40123;DHT22;25832;45.490;4.912;2023-02-28T08:19:09;0.90;96.60
40123;DHT22;25832;45.490;4.912;2023-02-28T08:21:35;1.00;96.40
40123;DHT22;25832;45.490;4.912;2023-02-28T08:24:01;1.00;96.30
40123;DHT22;25832;45.490;4.912;2023-02-28T08:26:26;1.00;97.30
40123;DHT22;25832;45.490;4.912;2023-02-28T08:28:52;1.10;97.00
40123;DHT22;25832;45.490;4.912;2023-02-28T08:31:18;1.20;96.40
40123;DHT22;25832;45.490;4.912;2023-02-28T08:33:45;1.30;96.00
40123;DHT22;25832;45.490;4.912;2023-02-28T08:36:11;1.30;96.40
40123;DHT22;25832;45.490;4.912;2023-02-28T08:38:37;1.40;96.30
40123;DHT22;25832;45.490;4.912;2023-02-28T08:41:07;1.60;96.10
40123;DHT22;25832;45.490;4.912;2023-02-28T08:43:34;1.70;95.20
40123;DHT22;25832;45.490;4.912;2023-02-28T08:46:00;1.70;95.20
40123;DHT22;25832;45.490;4.912;2023-02-28T08:48:28;1.60;95.00
40123;DHT22;25832;45.490;4.912;2023-02-28T08:50:57;1.60;95.20
40123;DHT22;25832;45.490;4.912;2023-02-28T08:53:23;1.40;95.10
40123;DHT22;25832;45.490;4.912;2023-02-28T08:55:56;1.40;95.20
40123;DHT22;25832;45.490;4.912;2023-02-28T08:58:22;1.40;95.50
40123;DHT22;25832;45.490;4.912;2023-02-28T09:00:48;1.40;95.20
40123;DHT22;25832;45.490;4.912;2023-02-28T09:03:14;1.40;95.30
40123;DHT22;25832;45.490;4.912;2023-02-28T09:05:39;1.40;95.50
40123;DHT22;25832;45.490;4.912;2023-02-28T09:08:05;1.40;95.30
40123;DHT22;25832;45.490;4.912;2023-02-28T09:10:30;1.50;95.10
40123;DHT22;25832;45.490;4.912;2023-02-28T09:12:56;1.60;95.10
40123;DHT22;25832;45.490;4.912;2023-02-28T09:15:22;1.60;95.10
40123;DHT22;25832;45.490;4.912;2023-02-28T09:17:47;1.70;95.90
40123;DHT22;25832;45.490;4.912;2023-02-28T09:20:13;1.90;95.70
40123;DHT22;25832;45.490;4.912;2023-02-28T09:22:39;1.90;95.40
40123;DHT22;25832;45.490;4.912;2023-02-28T09:25:06;2.00;94.30
40123;DHT22;25832;45.490;4.912;2023-02-28T09:27:31;1.90;94.40
40123;DHT22;25832;45.490;4.912;2023-02-28T09:29:57;1.90;94.70
40123;DHT22;25832;45.490;4.912;2023-02-28T09:32:23;1.90;94.80
40123;DHT22;25832;45.490;4.912;2023-02-28T09:34:48;2.00;94.90
40123;DHT22;25832;45.490;4.912;2023-02-28T09:37:14;2.10;94.80
40123;DHT22;25832;45.490;4.912;2023-02-28T09:39:40;2.10;94.20
40123;DHT22;25832;45.490;4.912;2023-02-28T09:42:06;2.00;94.30
40123;DHT22;25832;45.490;4.912;2023-02-28T09:44:42;2.10;94.70
40123;DHT22;25832;45.490;4.912;2023-02-28T09:47:21;2.20;93.80
40123;DHT22;25832;45.490;4.912;2023-02-28T09:49:50;2.20;94.10
40123;DHT22;25832;45.490;4.912;2023-02-28T09:52:23;2.20;94.50
40123;DHT22;25832;45.490;4.912;2023-02-28T09:54:51;2.30;94.00
40123;DHT22;25832;45.490;4.912;2023-02-28T09:57:33;2.40;95.40
40123;DHT22;25832;45.490;4.912;2023-02-28T10:05:20;2.70;94.20
40123;DHT22;25832;45.490;4.912;2023-02-28T10:10:43;2.80;93.70
40123;DHT22;25832;45.490;4.912;2023-02-28T10:13:24;3.00;94.50
40123;DHT22;25832;45.490;4.912;2023-02-28T10:19:06;3.20;92.90
40123;DHT22;25832;45.490;4.912;2023-02-28T10:21:40;3.20;93.30
40123;DHT22;25832;45.490;4.912;2023-02-28T10:24:28;3.30;94.90
40123;DHT22;25832;45.490;4.912;2023-02-28T10:27:18;3.40;92.60
40123;DHT22;25832;45.490;4.912;2023-02-28T10:29:46;3.30;92.70
40123;DHT22;25832;45.490;4.912;2023-02-28T10:32:19;3.30;92.70
40123;DHT22;25832;45.490;4.912;2023-02-28T10:34:52;3.30;92.80
40123;DHT22;25832;45.490;4.912;2023-02-28T10:37:19;3.40;93.00
40123;DHT22;25832;45.490;4.912;2023-02-28T10:39:46;3.40;92.90
40123;DHT22;25832;45.490;4.912;2023-02-28T10:42:27;3.50;94.50
40123;DHT22;25832;45.490;4.912;2023-02-28T10:45:15;3.50;93.30
40123;DHT22;25832;45.490;4.912;2023-02-28T10:55:57;3.90;92.10
40123;DHT22;25832;45.490;4.912;2023-02-28T10:58:25;3.80;92.40
40123;DHT22;25832;45.490;4.912;2023-02-28T11:00:51;3.80;92.40
40123;DHT22;25832;45.490;4.912;2023-02-28T11:03:34;3.70;92.00
40123;DHT22;25832;45.490;4.912;2023-02-28T11:06:27;3.70;92.10
40123;DHT22;25832;45.490;4.912;2023-02-28T11:11:25;3.70;92.00
40123;DHT22;25832;45.490;4.912;2023-02-28T11:13:57;3.70;92.40
40123;DHT22;25832;45.490;4.912;2023-02-28T11:16:33;3.70;91.90
40123;DHT22;25832;45.490;4.912;2023-02-28T11:18:59;3.70;91.90
40123;DHT22;25832;45.490;4.912;2023-02-28T11:21:32;3.60;91.70
40123;DHT22;25832;45.490;4.912;2023-02-28T11:24:37;3.60;91.90
40123;DHT22;25832;45.490;4.912;2023-02-28T11:27:01;3.50;91.70
40123;DHT22;25832;45.490;4.912;2023-02-28T11:29:32;3.50;92.50
40123;DHT22;25832;45.490;4.912;2023-02-28T11:32:24;3.50;92.60
40123;DHT22;25832;45.490;4.912;2023-02-28T11:37:32;3.60;92.20
40123;DHT22;25832;45.490;4.912;2023-02-28T11:39:58;3.70;91.80
40123;DHT22;25832;45.490;4.912;2023-02-28T11:48:11;3.60;92.80
40123;DHT22;25832;45.490;4.912;2023-02-28T11:56:51;3.60;92.00
40123;DHT22;25832;45.490;4.912;2023-02-28T11:59:41;3.60;91.90
40123;DHT22;25832;45.490;4.912;2023-02-28T12:02:24;3.60;92.20
40123;DHT22;25832;45.490;4.912;2023-02-28T12:08:04;3.70;92.30
40123;DHT22;25832;45.490;4.912;2023-02-28T12:10:48;3.80;91.90
40123;DHT22;25832;45.490;4.912;2023-02-28T12:19:26;3.80;92.20
40123;DHT22;25832;45.490;4.912;2023-02-28T12:25:13;3.80;91.80
40123;DHT22;25832;45.490;4.912;2023-02-28T12:27:47;3.90;92.40
40123;DHT22;25832;45.490;4.912;2023-02-28T12:30:34;3.90;92.20
40123;DHT22;25832;45.490;4.912;2023-02-28T12:33:11;3.90;91.10
40123;DHT22;25832;45.490;4.912;2023-02-28T12:38:14;4.00;91.50
40123;DHT22;25832;45.490;4.912;2023-02-28T12:43:21;4.10;91.40
40123;DHT22;25832;45.490;4.912;2023-02-28T12:46:00;4.10;91.50
40123;DHT22;25832;45.490;4.912;2023-02-28T12:48:37;4.10;92.50
40123;DHT22;25832;45.490;4.912;2023-02-28T12:51:06;4.30;91.40
40123;DHT22;25832;45.490;4.912;2023-02-28T12:53:58;4.30;91.80
40123;DHT22;25832;45.490;4.912;2023-02-28T12:56:46;4.40;91.70
40123;DHT22;25832;45.490;4.912;2023-02-28T12:59:35;4.50;90.90
40123;DHT22;25832;45.490;4.912;2023-02-28T13:05:13;4.60;91.70
40123;DHT22;25832;45.490;4.912;2023-02-28T13:08:13;4.60;91.00
40123;DHT22;25832;45.490;4.912;2023-02-28T13:10:47;4.50;90.30
40123;DHT22;25832;45.490;4.912;2023-02-28T13:13:23;4.40;91.30
40123;DHT22;25832;45.490;4.912;2023-02-28T13:16:09;4.40;91.00
40123;DHT22;25832;45.490;4.912;2023-02-28T13:18:39;4.40;91.00
40123;DHT22;25832;45.490;4.912;2023-02-28T13:21:43;4.40;91.00
40123;DHT22;25832;45.490;4.912;2023-02-28T13:24:10;4.40;90.80
40123;DHT22;25832;45.490;4.912;2023-02-28T13:29:35;4.40;90.60
40123;DHT22;25832;45.490;4.912;2023-02-28T13:34:41;4.40;92.20
40123;DHT22;25832;45.490;4.912;2023-02-28T13:50:22;4.50;92.90
40123;DHT22;25832;45.490;4.912;2023-02-28T13:56:09;4.70;92.70
40123;DHT22;25832;45.490;4.912;2023-02-28T14:01:38;4.80;92.70
40123;DHT22;25832;45.490;4.912;2023-02-28T14:06:53;4.80;92.70
40123;DHT22;25832;45.490;4.912;2023-02-28T14:09:29;4.80;91.80
40123;DHT22;25832;45.490;4.912;2023-02-28T14:11:57;4.70;92.60
40123;DHT22;25832;45.490;4.912;2023-02-28T14:17:05;4.60;91.60
40123;DHT22;25832;45.490;4.912;2023-02-28T14:19:32;4.70;92.40
40123;DHT22;25832;45.490;4.912;2023-02-28T14:24:51;4.60;92.60
40123;DHT22;25832;45.490;4.912;2023-02-28T14:32:49;4.70;92.40
40123;DHT22;25832;45.490;4.912;2023-02-28T14:38:46;4.70;92.30
40123;DHT22;25832;45.490;4.912;2023-02-28T14:41:31;4.70;92.30
40123;DHT22;25832;45.490;4.912;2023-02-28T14:44:02;4.70;92.20
40123;DHT22;25832;45.490;4.912;2023-02-28T14:46:38;4.70;91.80
40123;DHT22;25832;45.490;4.912;2023-02-28T14:49:06;4.60;91.40
40123;DHT22;25832;45.490;4.912;2023-02-28T14:51:33;4.60;91.70
40123;DHT22;25832;45.490;4.912;2023-02-28T14:54:01;4.70;92.10
40123;DHT22;25832;45.490;4.912;2023-02-28T14:56:36;4.80;92.80
40123;DHT22;25832;45.490;4.912;2023-02-28T14:59:03;4.70;91.60
40123;DHT22;25832;45.490;4.912;2023-02-28T15:01:29;4.70;92.50
40123;DHT22;25832;45.490;4.912;2023-02-28T15:04:03;4.70;92.60
40123;DHT22;25832;45.490;4.912;2023-02-28T15:06:29;4.60;91.60
40123;DHT22;25832;45.490;4.912;2023-02-28T15:09:14;4.60;92.00
40123;DHT22;25832;45.490;4.912;2023-02-28T15:11:40;4.60;92.10
40123;DHT22;25832;45.490;4.912;2023-02-28T15:14:06;4.70;92.60
40123;DHT22;25832;45.490;4.912;2023-02-28T15:16:37;4.70;92.30
40123;DHT22;25832;45.490;4.912;2023-02-28T15:19:13;4.60;91.40
40123;DHT22;25832;45.490;4.912;2023-02-28T15:21:43;4.60;91.30
40123;DHT22;25832;45.490;4.912;2023-02-28T15:24:14;4.50;91.50
40123;DHT22;25832;45.490;4.912;2023-02-28T15:26:46;4.50;91.70
40123;DHT22;25832;45.490;4.912;2023-02-28T15:29:19;4.50;91.70
40123;DHT22;25832;45.490;4.912;2023-02-28T15:31:53;4.40;91.80
40123;DHT22;25832;45.490;4.912;2023-02-28T15:34:26;4.40;91.80
40123;DHT22;25832;45.490;4.912;2023-02-28T15:36:52;4.40;91.90
40123;DHT22;25832;45.490;4.912;2023-02-28T15:39:24;4.30;92.00
40123;DHT22;25832;45.490;4.912;2023-02-28T15:42:09;4.30;92.20
40123;DHT22;25832;45.490;4.912;2023-02-28T15:44:35;4.30;92.00
40123;DHT22;25832;45.490;4.912;2023-02-28T15:47:04;4.20;92.50
40123;DHT22;25832;45.490;4.912;2023-02-28T15:49:50;4.20;92.50
40123;DHT22;25832;45.490;4.912;2023-02-28T15:52:41;4.20;92.70
40123;DHT22;25832;45.490;4.912;2023-02-28T15:55:17;4.20;92.90
40123;DHT22;25832;45.490;4.912;2023-02-28T15:57:44;4.20;93.20
40123;DHT22;25832;45.490;4.912;2023-02-28T16:00:13;4.20;93.60
40123;DHT22;25832;45.490;4.912;2023-02-28T16:02:40;4.20;92.90
40123;DHT22;25832;45.490;4.912;2023-02-28T16:07:40;4.10;93.00
40123;DHT22;25832;45.490;4.912;2023-02-28T16:10:09;4.00;93.10
40123;DHT22;25832;45.490;4.912;2023-02-28T16:12:37;4.00;94.00
40123;DHT22;25832;45.490;4.912;2023-02-28T16:15:17;4.00;93.50
40123;DHT22;25832;45.490;4.912;2023-02-28T16:17:43;4.00;93.90
40123;DHT22;25832;45.490;4.912;2023-02-28T16:20:13;3.90;93.20
40123;DHT22;25832;45.490;4.912;2023-02-28T16:22:40;3.90;93.70
40123;DHT22;25832;45.490;4.912;2023-02-28T16:25:18;3.90;93.90
40123;DHT22;25832;45.490;4.912;2023-02-28T16:27:48;3.90;93.60
40123;DHT22;25832;45.490;4.912;2023-02-28T16:30:23;3.90;93.10
40123;DHT22;25832;45.490;4.912;2023-02-28T16:32:49;3.80;93.10
40123;DHT22;25832;45.490;4.912;2023-02-28T16:35:15;3.80;93.10
40123;DHT22;25832;45.490;4.912;2023-02-28T16:37:43;3.70;93.00
40123;DHT22;25832;45.490;4.912;2023-02-28T16:40:14;3.80;93.20
40123;DHT22;25832;45.490;4.912;2023-02-28T16:42:41;3.80;93.30
40123;DHT22;25832;45.490;4.912;2023-02-28T16:45:15;3.70;93.20
40123;DHT22;25832;45.490;4.912;2023-02-28T16:47:42;3.70;93.70
40123;DHT22;25832;45.490;4.912;2023-02-28T16:52:41;3.70;93.80
40123;DHT22;25832;45.490;4.912;2023-02-28T16:55:07;3.60;94.00
40123;DHT22;25832;45.490;4.912;2023-02-28T16:57:33;3.60;94.30
40123;DHT22;25832;45.490;4.912;2023-02-28T16:59:58;3.50;94.40
40123;DHT22;25832;45.490;4.912;2023-02-28T17:02:24;3.50;94.30
40123;DHT22;25832;45.490;4.912;2023-02-28T17:04:50;3.50;94.20
40123;DHT22;25832;45.490;4.912;2023-02-28T17:07:16;3.40;94.30
40123;DHT22;25832;45.490;4.912;2023-02-28T17:09:42;3.40;94.40
40123;DHT22;25832;45.490;4.912;2023-02-28T17:12:09;3.40;94.30
40123;DHT22;25832;45.490;4.912;2023-02-28T17:14:35;3.30;94.30
40123;DHT22;25832;45.490;4.912;2023-02-28T17:17:00;3.30;94.20
40123;DHT22;25832;45.490;4.912;2023-02-28T17:19:26;3.30;94.80
40123;DHT22;25832;45.490;4.912;2023-02-28T17:21:53;3.20;94.80
40123;DHT22;25832;45.490;4.912;2023-02-28T17:24:19;3.20;94.50
40123;DHT22;25832;45.490;4.912;2023-02-28T17:26:45;3.20;94.50
40123;DHT22;25832;45.490;4.912;2023-02-28T17:29:18;3.10;94.40
40123;DHT22;25832;45.490;4.912;2023-02-28T17:31:44;3.10;94.60
40123;DHT22;25832;45.490;4.912;2023-02-28T17:34:10;3.10;94.70
40123;DHT22;25832;45.490;4.912;2023-02-28T17:36:36;3.10;94.80
40123;DHT22;25832;45.490;4.912;2023-02-28T17:39:04;3.10;95.00
40123;DHT22;25832;45.490;4.912;2023-02-28T17:41:34;3.10;94.80
40123;DHT22;25832;45.490;4.912;2023-02-28T17:43:59;3.00;95.00
40123;DHT22;25832;45.490;4.912;2023-02-28T17:46:25;3.10;95.00
40123;DHT22;25832;45.490;4.912;2023-02-28T17:48:53;3.00;94.90
40123;DHT22;25832;45.490;4.912;2023-02-28T17:51:21;3.00;95.20
40123;DHT22;25832;45.490;4.912;2023-02-28T17:53:47;3.00;95.20
40123;DHT22;25832;45.490;4.912;2023-02-28T17:56:18;3.00;95.20
40123;DHT22;25832;45.490;4.912;2023-02-28T17:58:44;3.00;95.00
40123;DHT22;25832;45.490;4.912;2023-02-28T18:01:10;3.00;95.20
40123;DHT22;25832;45.490;4.912;2023-02-28T18:03:37;2.90;95.50
40123;DHT22;25832;45.490;4.912;2023-02-28T18:06:03;2.90;95.20
40123;DHT22;25832;45.490;4.912;2023-02-28T18:08:29;2.90;95.00
40123;DHT22;25832;45.490;4.912;2023-02-28T18:10:56;2.80;95.20
40123;DHT22;25832;45.490;4.912;2023-02-28T18:13:21;2.80;95.30
40123;DHT22;25832;45.490;4.912;2023-02-28T18:15:47;2.80;95.50
40123;DHT22;25832;45.490;4.912;2023-02-28T18:18:13;2.70;95.60